Time;durP1;ratioP1;P1;durP2;ratioP2;P2;SDS_P1;SDS_P2;PMS_P1;PMS_P2;Temp;Humidity;BMP_temperature;BMP_pressure;BME280_temperature;BME280_humidity;BME280_pressure;Samples;Min_cycle;Max_cycle;Signal;HPM_P1;HPM_P2
2021/03/06 00:00:55;;;;;;;;;;;;;;;29.35;47.10;101347.84;5074874;27;69944;-34
2021/03/06 00:03:26;;;;;;;;;;;;;;;29.37;47.44;101345.78;5074521;28;66353;-33
2021/03/06 00:05:55;;;;;;;;;;;;;;;29.38;47.91;101359.06;5076564;28;69828;-33
2021/03/06 00:08:30;;;;;;;;;;;;;;;29.35;48.87;101359.47;5076706;27;65672;-34
2021/03/06 00:10:59;;;;;;;;;;;;;;;29.25;49.30;101363.56;5071204;28;69938;-33
2021/03/06 00:13:29;;;;;;;;;;;;;;;29.29;48.95;101362.16;5061901;27;65715;-33
2021/03/06 00:15:59;;;;;;;;;;;;;;;29.15;50.81;101363.94;5071703;27;70780;-34
2021/03/06 00:18:29;;;;;;;;;;;;;;;29.17;50.65;101361.88;5067900;27;66258;-35
2021/03/06 00:20:59;;;;;;;;;;;;;;;29.11;50.97;101368.03;5102968;27;69421;-37
2021/03/06 00:23:46;;;;;;;;;;;;;;;29.08;51.23;101365.72;5062858;27;67576;-36
2021/03/06 00:26:16;;;;;;;;;;;;;;;29.06;51.17;101373.19;5070167;27;70806;-38
2021/03/06 00:28:45;;;;;;;;;;;;;;;29.14;51.43;101381.16;5066938;27;66460;-36
2021/03/06 00:31:14;;;;;;;;;;;;;;;29.23;50.06;101382.69;5059072;27;69009;-36
2021/03/06 00:33:43;;;;;;;;;;;;;;;29.08;51.84;101379.25;5066640;28;66144;-36
2021/03/06 00:36:12;;;;;;;;;;;;;;;29.00;51.64;101387.44;5064897;28;69507;-35
2021/03/06 00:38:41;;;;;;;;;;;;;;;29.15;51.78;101385.53;5070826;27;65565;-37
2021/03/06 00:41:09;;;;;;;;;;;;;;;29.29;51.07;101392.69;5073053;27;70847;-37
2021/03/06 00:43:38;;;;;;;;;;;;;;;29.30;50.85;101399.75;5072184;28;66338;-38
2021/03/06 00:46:07;;;;;;;;;;;;;;;29.34;50.73;101401.06;5068630;28;69396;-36
2021/03/06 00:48:36;;;;;;;;;;;;;;;29.32;50.75;101405.81;5068390;28;66807;-37
2021/03/06 00:51:07;;;;;;;;;;;;;;;29.32;50.26;101403.13;5060696;28;70267;-35
2021/03/06 00:53:36;;;;;;;;;;;;;;;29.43;50.78;101409.00;5071311;28;66042;-39
2021/03/06 00:56:06;;;;;;;;;;;;;;;29.40;50.45;101408.38;5073757;27;70107;-36
2021/03/06 00:58:37;;;;;;;;;;;;;;;29.51;50.46;101411.56;5071788;27;66288;-37
2021/03/06 01:01:07;;;;;;;;;;;;;;;29.50;50.70;101417.97;5072424;28;70529;-39
2021/03/06 01:03:37;;;;;;;;;;;;;;;29.47;50.29;101416.50;5072891;27;65666;-35
2021/03/06 01:06:06;;;;;;;;;;;;;;;29.57;50.11;101421.56;5075241;27;69410;-40
2021/03/06 01:08:35;;;;;;;;;;;;;;;29.53;49.93;101414.88;5074263;27;65672;-38
2021/03/06 01:11:04;;;;;;;;;;;;;;;29.49;50.90;101413.63;5060758;27;69852;-36
2021/03/06 01:13:33;;;;;;;;;;;;;;;29.44;51.01;101418.78;5070042;27;66220;-34
2021/03/06 01:16:02;;;;;;;;;;;;;;;29.42;51.19;101418.13;5074088;28;69974;-33
2021/03/06 01:18:31;;;;;;;;;;;;;;;29.29;51.32;101398.09;5070660;28;66161;-33
2021/03/06 01:21:00;;;;;;;;;;;;;;;29.49;51.16;101419.84;5074686;28;69052;-35
2021/03/06 01:23:30;;;;;;;;;;;;;;;29.45;51.35;101423.13;5074605;27;66468;-37
2021/03/06 01:25:59;;;;;;;;;;;;;;;29.58;51.00;101412.41;5058619;28;68826;-35
2021/03/06 01:28:28;;;;;;;;;;;;;;;29.55;51.01;101399.31;5065019;28;65271;-33
2021/03/06 01:30:58;;;;;;;;;;;;;;;29.69;51.40;101425.41;5074120;27;70121;-34
2021/03/06 01:33:27;;;;;;;;;;;;;;;29.88;50.69;101423.03;5073625;27;65647;-34
2021/03/06 01:35:56;;;;;;;;;;;;;;;29.91;50.58;101426.16;5061817;27;69694;-33
2021/03/06 01:38:25;;;;;;;;;;;;;;;30.02;50.56;101430.16;5061051;28;66685;-36
2021/03/06 01:40:54;;;;;;;;;;;;;;;30.00;51.09;101437.63;5064861;27;70954;-35
2021/03/06 01:43:23;;;;;;;;;;;;;;;30.10;50.67;101432.69;5075457;27;66489;-34
2021/03/06 01:45:52;;;;;;;;;;;;;;;30.12;50.49;101436.03;5073084;27;70495;-35
2021/03/06 01:48:21;;;;;;;;;;;;;;;30.11;51.11;101439.75;5067751;27;66094;-37
2021/03/06 01:50:52;;;;;;;;;;;;;;;30.11;50.72;101442.47;5072705;27;69407;-36
2021/03/06 01:53:23;;;;;;;;;;;;;;;30.17;50.73;101438.97;5075250;27;66835;-37
2021/03/06 01:55:52;;;;;;;;;;;;;;;30.15;50.67;101435.63;5078218;27;69993;-36
2021/03/06 01:58:21;;;;;;;;;;;;;;;30.15;51.34;101441.03;5076323;28;66225;-33
2021/03/06 02:00:49;;;;;;;;;;;;;;;30.19;51.13;101436.88;5067400;27;69229;-34
2021/03/06 02:03:19;;;;;;;;;;;;;;;30.23;51.22;101438.19;5061812;28;66102;-35
2021/03/06 02:05:48;;;;;;;;;;;;;;;30.22;51.39;101436.50;5068697;27;69133;-36
2021/03/06 02:08:17;;;;;;;;;;;;;;;30.26;51.48;101440.50;5068601;27;65743;-34
2021/03/06 02:10:46;;;;;;;;;;;;;;;30.25;50.95;101441.50;5060680;27;70758;-41
2021/03/06 02:13:28;;;;;;;;;;;;;;;30.26;52.10;101437.78;5074019;28;65419;-35
2021/03/06 02:16:06;;;;;;;;;;;;;;;30.35;51.48;101437.59;5063517;27;70122;-35
2021/03/06 02:18:41;;;;;;;;;;;;;;;30.31;52.22;101439.03;5070387;28;66297;-34
2021/03/06 02:21:34;;;;;;;;;;;;;;;30.38;51.30;101437.19;5069747;27;69657;-35
2021/03/06 02:24:09;;;;;;;;;;;;;;;30.49;51.27;101444.72;5061958;28;66292;-34
2021/03/06 02:26:41;;;;;;;;;;;;;;;30.44;52.01;101439.09;5066417;27;69836;-37
2021/03/06 02:29:25;;;;;;;;;;;;;;;30.52;50.63;101441.59;5071658;27;66335;-37
2021/03/06 02:31:55;;;;;;;;;;;;;;;30.48;51.54;101435.78;5067082;27;70184;-36
2021/03/06 02:34:28;;;;;;;;;;;;;;;30.60;51.30;101444.13;5071720;27;66225;-34
2021/03/06 02:37:02;;;;;;;;;;;;;;;30.60;51.39;101446.84;5070580;27;70071;-35
2021/03/06 02:39:32;;;;;;;;;;;;;;;30.63;50.79;101443.72;5074646;28;66316;-34
2021/03/06 02:42:01;;;;;;;;;;;;;;;30.66;50.98;101442.47;5073524;28;70157;-34
2021/03/06 02:44:32;;;;;;;;;;;;;;;30.59;50.61;101447.88;5065957;28;66364;-35
2021/03/06 02:47:02;;;;;;;;;;;;;;;30.42;48.71;101442.00;5064271;27;69741;-34
2021/03/06 02:49:31;;;;;;;;;;;;;;;30.28;47.76;101429.44;5062661;27;66365;-34
2021/03/06 02:52:00;;;;;;;;;;;;;;;30.12;47.52;101437.91;5066891;27;69478;-37
2021/03/06 02:54:29;;;;;;;;;;;;;;;29.98;45.91;101424.31;5065399;28;66463;-33
2021/03/06 02:56:58;;;;;;;;;;;;;;;29.90;45.66;101426.38;5081595;27;69231;-35
2021/03/06 02:59:42;;;;;;;;;;;;;;;29.78;45.07;101424.22;5073338;27;66561;-35
2021/03/06 03:02:19;;;;;;;;;;;;;;;29.69;44.44;101420.00;5078229;27;69511;-35
2021/03/06 03:05:01;;;;;;;;;;;;;;;29.69;43.45;101414.59;5073907;27;66117;-35
2021/03/06 03:07:35;;;;;;;;;;;;;;;29.60;43.08;101416.59;5069204;27;70018;-38
2021/03/06 03:10:26;;;;;;;;;;;;;;;29.51;42.86;101411.56;5068936;27;65912;-34
2021/03/06 03:13:10;;;;;;;;;;;;;;;29.54;42.15;101411.16;5068573;27;68641;-35
2021/03/06 03:15:51;;;;;;;;;;;;;;;29.55;42.22;101412.81;5065640;27;65696;-38
2021/03/06 03:18:24;;;;;;;;;;;;;;;29.47;41.79;101410.28;5059896;27;69774;-35
2021/03/06 03:20:55;;;;;;;;;;;;;;;29.38;39.84;101413.13;5071814;28;66763;-36
2021/03/06 03:23:30;;;;;;;;;;;;;;;29.34;40.62;101411.88;5074360;27;69684;-33
2021/03/06 03:26:06;;;;;;;;;;;;;;;29.27;39.45;101405.56;5073660;27;66289;-35
2021/03/06 03:28:36;;;;;;;;;;;;;;;29.25;39.29;101386.00;5074124;27;70376;-35
2021/03/06 03:31:05;;;;;;;;;;;;;;;29.31;40.29;101398.75;5077294;27;65693;-35
2021/03/06 03:33:36;;;;;;;;;;;;;;;29.28;39.94;101391.03;5079240;27;69374;-36
2021/03/06 03:36:05;;;;;;;;;;;;;;;29.26;39.23;101390.41;5075651;28;66422;-36
2021/03/06 03:38:35;;;;;;;;;;;;;;;29.18;38.71;101393.25;5070265;28;69860;-36
2021/03/06 03:41:10;;;;;;;;;;;;;;;29.20;39.06;101377.69;5075191;27;65897;-41
2021/03/06 03:43:40;;;;;;;;;;;;;;;29.22;38.43;101381.00;5076416;27;69990;-35
2021/03/06 03:46:13;;;;;;;;;;;;;;;29.29;39.11;101370.25;5073495;27;66866;-36
2021/03/06 03:48:44;;;;;;;;;;;;;;;29.22;38.02;101370.19;5086682;27;70512;-34
2021/03/06 03:51:13;;;;;;;;;;;;;;;29.16;38.33;101371.00;5070768;27;66011;-35
2021/03/06 03:53:42;;;;;;;;;;;;;;;29.12;39.18;101370.56;5069761;27;68509;-35
2021/03/06 03:56:26;;;;;;;;;;;;;;;29.10;39.25;101360.97;5065083;27;66492;-35
2021/03/06 03:58:55;;;;;;;;;;;;;;;29.28;39.95;101357.75;5077082;27;70104;-35
2021/03/06 04:01:24;;;;;;;;;;;;;;;29.24;39.48;101346.53;5078107;27;65579;-33
2021/03/06 04:03:53;;;;;;;;;;;;;;;29.29;39.95;101338.66;5073322;28;69074;-37
2021/03/06 04:06:22;;;;;;;;;;;;;;;29.29;40.24;101348.63;5074413;27;66312;-33
2021/03/06 04:08:51;;;;;;;;;;;;;;;29.29;40.29;101349.47;5106175;27;68240;-34
2021/03/06 04:11:20;;;;;;;;;;;;;;;29.37;40.03;101346.63;5071402;27;66460;-36
2021/03/06 04:13:49;;;;;;;;;;;;;;;29.43;39.95;101341.44;5067263;27;70362;-36
2021/03/06 04:16:18;;;;;;;;;;;;;;;29.35;40.63;101323.53;5066536;27;66929;-35
2021/03/06 04:18:47;;;;;;;;;;;;;;;29.45;40.20;101328.53;5071236;27;69662;-38
2021/03/06 04:21:16;;;;;;;;;;;;;;;29.51;40.24;101316.97;5075455;27;66237;-35
2021/03/06 04:23:45;;;;;;;;;;;;;;;29.48;39.60;101309.25;5076507;27;69947;-35
2021/03/06 04:26:14;;;;;;;;;;;;;;;29.48;39.25;101314.66;5069758;27;66169;-35
2021/03/06 04:28:43;;;;;;;;;;;;;;;29.51;39.85;101298.03;5077946;27;70188;-35
2021/03/06 04:31:15;;;;;;;;;;;;;;;29.54;39.27;101298.47;5072287;27;66320;-35
2021/03/06 04:33:44;;;;;;;;;;;;;;;29.54;39.33;101293.06;5068004;27;70069;-38
2021/03/06 04:36:14;;;;;;;;;;;;;;;29.50;39.52;101286.38;5068635;27;65361;-37
2021/03/06 04:38:43;;;;;;;;;;;;;;;29.53;38.66;101279.72;5067830;27;69970;-35
2021/03/06 04:41:12;;;;;;;;;;;;;;;29.45;38.77;101275.34;5070983;27;66831;-33
2021/03/06 04:43:41;;;;;;;;;;;;;;;29.40;38.51;101265.13;5067966;27;71249;-36
2021/03/06 04:46:10;;;;;;;;;;;;;;;29.46;38.43;101265.38;5069502;27;65918;-34
2021/03/06 04:48:40;;;;;;;;;;;;;;;29.46;37.75;101257.25;5074428;27;68912;-34
2021/03/06 04:51:09;;;;;;;;;;;;;;;29.46;38.01;101257.25;5072083;27;66412;-35
2021/03/06 04:53:38;;;;;;;;;;;;;;;29.43;37.54;101257.66;5066668;27;69008;-34
2021/03/06 04:56:07;;;;;;;;;;;;;;;29.39;36.66;101255.38;5071938;28;65216;-33
2021/03/06 04:58:36;;;;;;;;;;;;;;;29.36;37.21;101246.81;5074549;27;70082;-34
2021/03/06 05:01:05;;;;;;;;;;;;;;;29.39;37.25;101241.84;5072226;27;66122;-34
2021/03/06 05:03:34;;;;;;;;;;;;;;;29.37;36.25;101226.88;5069030;27;69373;-36
2021/03/06 05:06:03;;;;;;;;;;;;;;;29.47;37.45;101226.47;5067688;27;65634;-37
2021/03/06 05:08:33;;;;;;;;;;;;;;;29.50;36.77;101216.09;5070195;27;72070;-35
2021/03/06 05:11:02;;;;;;;;;;;;;;;29.42;36.23;101218.16;5060770;27;66227;-35
2021/03/06 05:13:31;;;;;;;;;;;;;;;29.51;36.13;101214.25;5065274;27;70671;-35
2021/03/06 05:16:00;;;;;;;;;;;;;;;29.43;36.35;101209.84;5063161;27;66192;-40
2021/03/06 05:18:30;;;;;;;;;;;;;;;29.50;36.44;101199.03;5066509;27;70094;-35
2021/03/06 05:20:59;;;;;;;;;;;;;;;29.43;36.29;101196.34;5068289;27;66117;-35
2021/03/06 05:23:29;;;;;;;;;;;;;;;29.45;35.99;101186.16;5064212;27;70871;-36
2021/03/06 05:25:58;;;;;;;;;;;;;;;29.38;35.11;101183.41;5060518;27;66444;-36
2021/03/06 05:28:27;;;;;;;;;;;;;;;29.40;35.87;101181.34;5074306;27;70216;-34
2021/03/06 05:30:55;;;;;;;;;;;;;;;29.45;35.98;101180.75;5071447;27;65952;-36
2021/03/06 05:33:24;;;;;;;;;;;;;;;29.53;35.40;101172.47;5067675;27;70208;-37
2021/03/06 05:35:53;;;;;;;;;;;;;;;29.52;36.17;101164.53;5067689;27;66271;-36
2021/03/06 05:38:22;;;;;;;;;;;;;;;29.55;35.51;101158.72;5077642;27;69922;-38
2021/03/06 05:40:52;;;;;;;;;;;;;;;29.53;35.63;101160.78;5075544;27;66034;-40
2021/03/06 05:43:22;;;;;;;;;;;;;;;29.53;36.92;101155.38;5070465;27;70109;-34
2021/03/06 05:45:57;;;;;;;;;;;;;;;29.54;37.16;101140.84;5069228;27;66540;-37
2021/03/06 05:48:26;;;;;;;;;;;;;;;29.55;36.77;101135.22;5073967;27;70341;-36
2021/03/06 05:50:56;;;;;;;;;;;;;;;29.61;37.15;101136.28;5072248;27;67294;-37
2021/03/06 05:53:27;;;;;;;;;;;;;;;29.59;36.85;101111.34;5071375;27;70461;-36
2021/03/06 05:55:56;;;;;;;;;;;;;;;29.50;37.19;101096.34;5075889;27;66099;-36
2021/03/06 05:58:27;;;;;;;;;;;;;;;29.62;36.83;101122.56;5075859;27;68919;-36
2021/03/06 06:00:57;;;;;;;;;;;;;;;29.68;36.57;101114.72;5073146;27;64914;-37
2021/03/06 06:03:26;;;;;;;;;;;;;;;29.68;35.88;101115.53;5073409;27;69370;-36
2021/03/06 06:05:55;;;;;;;;;;;;;;;29.70;36.25;101113.47;5073147;28;66028;-35
2021/03/06 06:08:25;;;;;;;;;;;;;;;29.54;36.25;101108.41;5076069;28;70007;-42
2021/03/06 06:10:54;;;;;;;;;;;;;;;29.33;35.42;101091.31;5075574;27;66120;-37
2021/03/06 06:13:23;;;;;;;;;;;;;;;29.35;35.05;101093.81;5090257;27;68966;-36
2021/03/06 06:15:55;;;;;;;;;;;;;;;29.40;35.11;101086.78;5072798;27;65497;-35
2021/03/06 06:18:25;;;;;;;;;;;;;;;29.53;35.45;101085.13;5076633;27;69900;-37
2021/03/06 06:20:54;;;;;;;;;;;;;;;29.50;35.34;101074.72;5072114;27;65523;-35
2021/03/06 06:23:23;;;;;;;;;;;;;;;29.51;34.34;101060.19;5067821;27;69905;-34
2021/03/06 06:25:52;;;;;;;;;;;;;;;29.29;34.25;101057.66;5061198;27;66440;-36
2021/03/06 06:28:21;;;;;;;;;;;;;;;29.32;34.45;101054.53;5108826;27;68815;-36
2021/03/06 06:31:09;;;;;;;;;;;;;;;29.45;34.47;101050.19;5067595;27;65505;-37
2021/03/06 06:33:43;;;;;;;;;;;;;;;29.35;34.23;101043.31;5089005;27;69039;-36
2021/03/06 06:36:30;;;;;;;;;;;;;;;29.45;34.58;101036.66;5073680;27;66197;-36
2021/03/06 06:39:00;;;;;;;;;;;;;;;29.58;34.60;101033.97;5070448;27;70199;-35
2021/03/06 06:42:07;;;;;;;;;;;;;;;29.59;34.19;101024.84;5068937;27;67122;-36
2021/03/06 06:44:36;;;;;;;;;;;;;;;29.55;33.79;101023.56;5052992;28;69239;-36
2021/03/06 06:47:18;;;;;;;;;;;;;;;29.65;33.55;101024.03;5051623;28;65134;-37
2021/03/06 06:49:48;;;;;;;;;;;;;;;29.59;33.39;101014.03;5063158;27;69951;-35
2021/03/06 06:52:19;;;;;;;;;;;;;;;29.42;33.71;101018.16;5069472;28;65914;-37
2021/03/06 06:54:55;;;;;;;;;;;;;;;29.43;33.77;101014.44;5074719;27;69743;-37
2021/03/06 06:57:25;;;;;;;;;;;;;;;29.61;33.47;101017.34;5075194;28;67623;-36
2021/03/06 06:59:56;;;;;;;;;;;;;;;29.53;33.44;101012.13;5060354;27;69945;-36
2021/03/06 07:02:26;;;;;;;;;;;;;;;29.77;33.84;101006.13;5070052;27;66397;-37
2021/03/06 07:05:01;;;;;;;;;;;;;;;29.75;33.78;101005.50;5067868;27;70835;-36
2021/03/06 07:07:50;;;;;;;;;;;;;;;29.71;33.83;100995.31;5070375;27;66309;-37
2021/03/06 07:10:21;;;;;;;;;;;;;;;29.74;33.45;100993.03;5072353;27;69830;-36
2021/03/06 07:12:58;;;;;;;;;;;;;;;29.59;33.08;100989.69;5077420;27;66246;-36
2021/03/06 07:15:30;;;;;;;;;;;;;;;29.78;33.54;100986.19;5080835;27;69848;-34
2021/03/06 07:18:09;;;;;;;;;;;;;;;29.79;32.82;100977.00;5077893;27;65396;-36
2021/03/06 07:20:39;;;;;;;;;;;;;;;29.77;33.62;100979.09;5075231;27;70166;-36
2021/03/06 07:23:18;;;;;;;;;;;;;;;29.94;32.60;100962.41;5064316;27;65618;-34
2021/03/06 07:25:54;;;;;;;;;;;;;;;29.84;33.48;100958.28;5061641;27;70099;-35
2021/03/06 07:28:24;;;;;;;;;;;;;;;30.05;32.47;100953.66;5061679;27;65930;-36
2021/03/06 07:30:58;;;;;;;;;;;;;;;30.05;32.68;100950.94;5067810;27;69709;-37
2021/03/06 07:33:27;;;;;;;;;;;;;;;29.87;32.84;100945.38;5073318;27;65562;-36
2021/03/06 07:35:56;;;;;;;;;;;;;;;30.11;32.28;100951.97;5075437;27;70084;-34
2021/03/06 07:38:25;;;;;;;;;;;;;;;30.11;33.06;100946.53;5088166;27;65601;-36
2021/03/06 07:40:59;;;;;;;;;;;;;;;30.22;32.69;100945.91;5075363;27;69932;-34
2021/03/06 07:43:33;;;;;;;;;;;;;;;30.04;33.21;100927.66;5079621;27;65574;-35
2021/03/06 07:46:06;;;;;;;;;;;;;;;30.27;32.97;100936.09;5075135;27;70482;-37
2021/03/06 07:48:48;;;;;;;;;;;;;;;30.24;32.86;100925.72;5078065;28;66890;-36
2021/03/06 07:51:19;;;;;;;;;;;;;;;30.21;32.66;100923.41;5078029;27;70053;-35
2021/03/06 07:53:48;;;;;;;;;;;;;;;30.25;32.93;100918.41;5073257;27;66654;-36
2021/03/06 07:56:18;;;;;;;;;;;;;;;30.19;33.30;100922.78;5081231;27;69024;-34
2021/03/06 07:58:48;;;;;;;;;;;;;;;30.30;32.94;100913.19;5071917;27;66164;-35
2021/03/06 08:01:32;;;;;;;;;;;;;;;30.23;32.89;100909.72;5066744;28;69181;-35
2021/03/06 08:04:03;;;;;;;;;;;;;;;30.53;33.53;100907.25;5074237;27;66105;-36
2021/03/06 08:06:33;;;;;;;;;;;;;;;30.37;32.47;100903.19;5075293;27;68968;-34
2021/03/06 08:09:11;;;;;;;;;;;;;;;30.48;33.31;100905.19;5068240;27;67641;-35
2021/03/06 08:11:42;;;;;;;;;;;;;;;30.33;32.78;100899.22;5078326;27;71098;-37
2021/03/06 08:14:31;;;;;;;;;;;;;;;30.86;33.12;100906.22;5068455;27;65225;-36
2021/03/06 08:17:00;;;;;;;;;;;;;;;31.06;33.53;100890.63;5074209;27;68547;-36
2021/03/06 08:19:30;;;;;;;;;;;;;;;31.27;34.32;100894.00;5076921;27;66916;-34
2021/03/06 08:22:21;;;;;;;;;;;;;;;31.47;36.55;100894.69;5076706;27;69219;-35
2021/03/06 08:24:52;;;;;;;;;;;;;;;31.68;39.06;100892.56;5076169;27;65101;-38
2021/03/06 08:27:22;;;;;;;;;;;;;;;31.98;39.18;100898.94;5074931;27;69105;-35
2021/03/06 08:29:55;;;;;;;;;;;;;;;32.35;39.60;100887.19;5072756;27;66354;-35
2021/03/06 08:32:24;;;;;;;;;;;;;;;32.66;39.32;100888.88;5074288;27;70433;-38
2021/03/06 08:34:54;;;;;;;;;;;;;;;32.89;40.79;100894.34;5063418;27;65562;-37
2021/03/06 08:37:24;;;;;;;;;;;;;;;33.09;41.01;100887.78;5058986;27;70007;-37
2021/03/06 08:40:16;;;;;;;;;;;;;;;33.28;40.57;100875.72;5054798;27;65271;-39
2021/03/06 08:42:52;;;;;;;;;;;;;;;33.41;40.93;100879.28;5072462;27;69810;-35
2021/03/06 08:45:28;;;;;;;;;;;;;;;33.57;40.76;100882.13;5073663;27;65746;-35
2021/03/06 08:48:01;;;;;;;;;;;;;;;33.66;40.44;100879.84;5078659;27;70008;-36
2021/03/06 08:50:37;;;;;;;;;;;;;;;33.83;39.82;100879.13;5070636;27;66578;-36
2021/03/06 08:53:13;;;;;;;;;;;;;;;33.89;40.64;100880.88;5072006;27;70023;-38
2021/03/06 08:55:47;;;;;;;;;;;;;;;33.99;40.30;100881.91;5063057;27;66199;-37
2021/03/06 08:58:21;;;;;;;;;;;;;;;34.05;40.89;100871.16;5076252;27;69794;-37
2021/03/06 09:00:55;;;;;;;;;;;;;;;34.10;40.56;100882.13;5069391;27;67526;-35
2021/03/06 09:03:27;;;;;;;;;;;;;;;34.20;40.46;100883.16;5072803;28;70818;-35
2021/03/06 09:05:57;;;;;;;;;;;;;;;34.38;39.74;100889.44;5071194;28;66269;-36
2021/03/06 09:08:29;;;;;;;;;;;;;;;34.51;39.50;100885.63;5071369;27;68976;-35
2021/03/06 09:10:59;;;;;;;;;;;;;;;34.54;40.04;100888.66;5060744;27;66034;-40
2021/03/06 09:13:31;;;;;;;;;;;;;;;34.59;39.89;100886.06;5058774;28;69928;-37
2021/03/06 09:16:03;;;;;;;;;;;;;;;34.69;39.51;100891.69;5063536;27;66461;-38
2021/03/06 09:18:35;;;;;;;;;;;;;;;34.74;39.77;100884.66;5066786;27;69928;-38
2021/03/06 09:21:04;;;;;;;;;;;;;;;34.80;39.88;100886.41;5060051;28;67736;-39
2021/03/06 09:23:37;;;;;;;;;;;;;;;34.85;39.85;100886.50;5070902;28;69851;-35
2021/03/06 09:26:09;;;;;;;;;;;;;;;34.87;39.71;100882.44;5069928;27;66334;-36
2021/03/06 09:28:38;;;;;;;;;;;;;;;34.73;41.14;100888.47;5071943;27;69389;-36
2021/03/06 09:31:14;;;;;;;;;;;;;;;34.54;42.72;100887.84;5065878;27;66136;-36
2021/03/06 09:33:44;;;;;;;;;;;;;;;34.56;41.73;100891.19;5070655;28;70083;-36
2021/03/06 09:36:16;;;;;;;;;;;;;;;34.56;42.69;100892.00;5072815;27;65382;-37
2021/03/06 09:38:47;;;;;;;;;;;;;;;34.53;42.48;100897.09;5070679;28;69347;-41
2021/03/06 09:41:23;;;;;;;;;;;;;;;34.53;42.37;100897.91;5074230;27;66249;-35
2021/03/06 09:43:53;;;;;;;;;;;;;;;34.52;42.10;100901.72;5066812;27;70252;-38
2021/03/06 09:46:25;;;;;;;;;;;;;;;34.55;41.51;100897.66;5069206;27;66404;-36
2021/03/06 09:48:55;;;;;;;;;;;;;;;34.58;41.62;100902.66;5068885;27;69210;-35
2021/03/06 09:51:36;;;;;;;;;;;;;;;34.47;42.35;100909.78;5066763;28;65645;-36
2021/03/06 09:54:05;;;;;;;;;;;;;;;34.52;42.03;100906.31;5076694;27;69170;-36
2021/03/06 09:56:34;;;;;;;;;;;;;;;34.50;42.47;100913.94;5072708;28;66345;-38
2021/03/06 09:59:04;;;;;;;;;;;;;;;34.49;42.63;100915.81;5071062;28;70653;-38
2021/03/06 10:01:34;;;;;;;;;;;;;;;34.50;42.50;100916.66;5067109;27;66303;-38
2021/03/06 10:04:16;;;;;;;;;;;;;;;34.52;42.96;100920.78;5060999;27;69183;-36
2021/03/06 10:06:47;;;;;;;;;;;;;;;34.44;43.11;100932.91;5066918;28;65668;-39
2021/03/06 10:09:17;;;;;;;;;;;;;;;34.46;43.02;100935.34;5073555;28;69288;-37
2021/03/06 10:12:01;;;;;;;;;;;;;;;34.48;42.59;100935.94;5075616;27;66161;-35
2021/03/06 10:14:31;;;;;;;;;;;;;;;34.41;42.77;100932.56;5077526;27;69158;-36
2021/03/06 10:17:01;;;;;;;;;;;;;;;34.43;43.46;100930.41;5076302;27;66131;-39
2021/03/06 10:19:31;;;;;;;;;;;;;;;34.41;43.69;100935.28;5074403;28;69845;-37
2021/03/06 10:22:03;;;;;;;;;;;;;;;34.44;42.99;100932.06;5074110;27;65047;-35
2021/03/06 10:24:50;;;;;;;;;;;;;;;34.41;42.93;100935.28;5069151;28;69834;-36
2021/03/06 10:27:34;;;;;;;;;;;;;;;34.36;43.37;100937.91;5074346;27;66313;-36
2021/03/06 10:30:16;;;;;;;;;;;;;;;34.36;43.19;100938.72;5075625;27;70036;-36
2021/03/06 10:33:00;;;;;;;;;;;;;;;34.32;43.94;100936.72;5064288;27;65516;-37
2021/03/06 10:35:29;;;;;;;;;;;;;;;34.31;43.62;100937.81;5067329;28;70069;-35
2021/03/06 10:37:59;;;;;;;;;;;;;;;34.26;43.70;100938.53;5065117;28;65616;-35
2021/03/06 10:40:41;;;;;;;;;;;;;;;34.26;43.53;100941.25;5061753;27;68693;-33
2021/03/06 10:43:10;;;;;;;;;;;;;;;34.18;44.07;100939.72;5073259;27;66372;-38
2021/03/06 10:45:39;;;;;;;;;;;;;;;34.20;43.71;100940.31;5080323;27;69887;-35
2021/03/06 10:48:08;;;;;;;;;;;;;;;34.18;44.15;100947.06;5066558;27;65865;-38
2021/03/06 10:50:40;;;;;;;;;;;;;;;34.07;44.35;100954.19;5067316;27;70496;-36
2021/03/06 10:53:18;;;;;;;;;;;;;;;34.16;43.96;100947.34;5066295;27;66197;-35
2021/03/06 10:55:49;;;;;;;;;;;;;;;34.14;44.40;100944.00;5067931;27;69170;-36
2021/03/06 10:58:19;;;;;;;;;;;;;;;34.11;44.42;100949.94;5073428;27;65288;-34
2021/03/06 11:00:48;;;;;;;;;;;;;;;34.04;45.82;100954.66;5075404;27;69811;-36
2021/03/06 11:03:18;;;;;;;;;;;;;;;33.99;46.11;100957.25;5074833;27;66513;-36
2021/03/06 11:05:57;;;;;;;;;;;;;;;34.06;46.38;100955.28;5074934;27;71124;-34
2021/03/06 11:08:26;;;;;;;;;;;;;;;34.02;46.15;100954.09;5075305;27;66511;-33
2021/03/06 11:10:55;;;;;;;;;;;;;;;34.01;46.34;100961.41;5075807;28;69982;-36
2021/03/06 11:13:36;;;;;;;;;;;;;;;34.05;47.15;100952.81;5074038;27;65379;-37
2021/03/06 11:16:06;;;;;;;;;;;;;;;33.96;47.48;100958.59;5071982;27;70457;-36
2021/03/06 11:18:37;;;;;;;;;;;;;;;34.01;47.32;100960.56;5076882;27;66574;-36
2021/03/06 11:21:08;;;;;;;;;;;;;;;33.96;47.39;100969.47;5076251;27;69418;-35
2021/03/06 11:23:38;;;;;;;;;;;;;;;33.91;47.30;100976.72;5075543;27;65291;-36
2021/03/06 11:26:12;;;;;;;;;;;;;;;33.81;47.09;100971.84;5075067;27;70312;-37
2021/03/06 11:28:41;;;;;;;;;;;;;;;33.84;47.66;100984.16;5073479;27;66666;-36
2021/03/06 11:31:10;;;;;;;;;;;;;;;33.78;47.77;100983.22;5074792;27;70234;-34
2021/03/06 11:33:39;;;;;;;;;;;;;;;33.74;47.82;100993.75;5075847;28;65492;-41
2021/03/06 11:36:08;;;;;;;;;;;;;;;33.77;47.71;100990.56;5073234;27;69363;-36
2021/03/06 11:38:37;;;;;;;;;;;;;;;33.76;47.34;100988.88;5076717;27;66437;-34
2021/03/06 11:41:06;;;;;;;;;;;;;;;33.73;46.20;100986.63;5071793;27;69376;-33
2021/03/06 11:43:35;;;;;;;;;;;;;;;33.48;45.32;100999.63;5076052;27;65338;-35
2021/03/06 11:46:05;;;;;;;;;;;;;;;33.30;44.32;100993.22;5090404;27;69654;-36
2021/03/06 11:48:43;;;;;;;;;;;;;;;33.06;43.77;100996.94;5067474;28;65411;-34
2021/03/06 11:51:12;;;;;;;;;;;;;;;32.86;42.43;101003.47;5065579;27;69953;-38
2021/03/06 11:53:41;;;;;;;;;;;;;;;32.72;42.67;101010.16;5065628;27;65480;-34
2021/03/06 11:56:10;;;;;;;;;;;;;;;32.68;41.65;101011.66;5073701;28;70018;-35
2021/03/06 11:58:38;;;;;;;;;;;;;;;32.51;42.95;101005.22;5062543;27;66090;-31
2021/03/06 12:01:08;;;;;;;;;;;;;;;32.39;42.27;101005.13;5077270;27;69381;-32
2021/03/06 12:03:37;;;;;;;;;;;;;;;32.35;42.16;101006.66;5064996;27;65510;-35
2021/03/06 12:06:06;;;;;;;;;;;;;;;32.20;42.08;101015.97;5072621;28;69809;-36
2021/03/06 12:08:35;;;;;;;;;;;;;;;32.18;42.12;101017.25;5076986;27;65367;-35
2021/03/06 12:11:04;;;;;;;;;;;;;;;32.11;41.49;101027.38;5076556;27;69724;-35
2021/03/06 12:13:33;;;;;;;;;;;;;;;32.10;41.70;101025.72;5066630;27;65187;-33
2021/03/06 12:16:02;;;;;;;;;;;;;;;31.99;41.51;101024.59;5063330;27;69441;-35
2021/03/06 12:18:30;;;;;;;;;;;;;;;31.90;41.58;101026.72;5078896;27;65209;-37
2021/03/06 12:20:59;;;;;;;;;;;;;;;31.84;41.04;101033.03;5077338;28;69635;-37
2021/03/06 12:23:28;;;;;;;;;;;;;;;31.75;39.91;101031.66;5070983;27;66303;-35
2021/03/06 12:25:57;;;;;;;;;;;;;;;31.72;39.71;101034.81;5074575;27;70858;-37
2021/03/06 12:28:26;;;;;;;;;;;;;;;31.59;39.29;101033.91;5073484;27;66417;-33
2021/03/06 12:30:55;;;;;;;;;;;;;;;31.67;38.80;101042.78;5070792;27;69031;-32
2021/03/06 12:33:24;;;;;;;;;;;;;;;31.67;38.60;101037.38;5072407;28;66082;-33
2021/03/06 12:35:53;;;;;;;;;;;;;;;31.60;38.66;101032.00;5071597;27;70718;-38
2021/03/06 12:38:22;;;;;;;;;;;;;;;31.73;39.49;101042.75;5070652;27;66508;-34
2021/03/06 12:40:51;;;;;;;;;;;;;;;31.57;38.91;101049.56;5068693;27;69501;-33
2021/03/06 12:43:21;;;;;;;;;;;;;;;31.61;38.60;101050.75;5073628;28;66187;-33
2021/03/06 12:45:50;;;;;;;;;;;;;;;31.55;38.02;101058.94;5071162;27;71146;-35
2021/03/06 12:48:19;;;;;;;;;;;;;;;31.48;37.69;101059.00;5104839;27;65502;-41
2021/03/06 12:50:48;;;;;;;;;;;;;;;31.52;38.20;101062.09;5067275;27;69444;-36
2021/03/06 12:53:18;;;;;;;;;;;;;;;31.44;38.19;101060.50;5061802;28;65562;-36
2021/03/06 12:55:47;;;;;;;;;;;;;;;31.31;37.38;101065.97;5064918;27;69683;-35
2021/03/06 12:58:16;;;;;;;;;;;;;;;31.29;37.32;101068.09;5072508;27;64767;-37